sensor_id;sensor_type;location;lat;lon;timestamp;P1;durP1;ratioP1;P2;durP2;ratioP2
33104;SDS011;19476;51.448;6.674;2023-04-15T00:00:51;8.13;;;3.80;;
33104;SDS011;19476;51.448;6.674;2023-04-15T00:03:17;7.57;;;3.95;;
33104;SDS011;19476;51.448;6.674;2023-04-15T00:05:43;5.97;;;3.70;;
33104;SDS011;19476;51.448;6.674;2023-04-15T00:08:09;9.85;;;3.92;;
33104;SDS011;19476;51.448;6.674;2023-04-15T00:10:35;9.23;;;3.58;;
33104;SDS011;19476;51.448;6.674;2023-04-15T00:13:00;8.07;;;3.90;;
33104;SDS011;19476;51.448;6.674;2023-04-15T00:15:27;7.95;;;3.80;;
33104;SDS011;19476;51.448;6.674;2023-04-15T00:17:52;6.68;;;3.50;;
33104;SDS011;19476;51.448;6.674;2023-04-15T00:20:18;8.43;;;3.30;;
33104;SDS011;19476;51.448;6.674;2023-04-15T00:22:44;8.57;;;3.70;;
33104;SDS011;19476;51.448;6.674;2023-04-15T00:25:10;7.32;;;3.53;;
33104;SDS011;19476;51.448;6.674;2023-04-15T00:27:36;7.53;;;3.58;;
33104;SDS011;19476;51.448;6.674;2023-04-15T00:30:02;5.75;;;3.88;;
33104;SDS011;19476;51.448;6.674;2023-04-15T00:32:29;7.20;;;3.50;;
33104;SDS011;19476;51.448;6.674;2023-04-15T00:34:55;7.70;;;3.67;;
33104;SDS011;19476;51.448;6.674;2023-04-15T00:37:21;7.00;;;3.47;;
33104;SDS011;19476;51.448;6.674;2023-04-15T00:39:47;6.57;;;3.85;;
33104;SDS011;19476;51.448;6.674;2023-04-15T00:42:13;6.35;;;3.80;;
33104;SDS011;19476;51.448;6.674;2023-04-15T00:44:39;5.85;;;3.47;;
33104;SDS011;19476;51.448;6.674;2023-04-15T00:47:05;5.65;;;3.65;;
33104;SDS011;19476;51.448;6.674;2023-04-15T00:49:32;6.30;;;3.08;;
33104;SDS011;19476;51.448;6.674;2023-04-15T00:51:58;6.50;;;3.60;;
33104;SDS011;19476;51.448;6.674;2023-04-15T00:54:23;6.95;;;3.50;;
33104;SDS011;19476;51.448;6.674;2023-04-15T00:56:49;5.03;;;3.55;;
33104;SDS011;19476;51.448;6.674;2023-04-15T00:59:16;7.30;;;4.20;;
33104;SDS011;19476;51.448;6.674;2023-04-15T01:01:42;6.93;;;3.38;;
33104;SDS011;19476;51.448;6.674;2023-04-15T01:04:09;7.65;;;3.55;;
33104;SDS011;19476;51.448;6.674;2023-04-15T01:06:36;7.25;;;4.18;;
33104;SDS011;19476;51.448;6.674;2023-04-15T01:09:02;6.57;;;3.40;;
33104;SDS011;19476;51.448;6.674;2023-04-15T01:11:28;7.18;;;3.80;;
33104;SDS011;19476;51.448;6.674;2023-04-15T01:13:55;8.02;;;3.72;;
33104;SDS011;19476;51.448;6.674;2023-04-15T01:16:22;6.35;;;3.15;;
33104;SDS011;19476;51.448;6.674;2023-04-15T01:18:48;6.07;;;3.35;;
33104;SDS011;19476;51.448;6.674;2023-04-15T01:21:14;7.45;;;3.38;;
33104;SDS011;19476;51.448;6.674;2023-04-15T01:23:40;6.60;;;3.47;;
33104;SDS011;19476;51.448;6.674;2023-04-15T01:26:08;6.05;;;3.58;;
33104;SDS011;19476;51.448;6.674;2023-04-15T01:28:35;5.93;;;3.33;;
33104;SDS011;19476;51.448;6.674;2023-04-15T01:31:05;6.70;;;3.80;;
33104;SDS011;19476;51.448;6.674;2023-04-15T01:33:38;5.85;;;3.35;;
33104;SDS011;19476;51.448;6.674;2023-04-15T01:36:05;6.78;;;3.63;;
33104;SDS011;19476;51.448;6.674;2023-04-15T01:38:33;6.43;;;3.50;;
33104;SDS011;19476;51.448;6.674;2023-04-15T01:40:59;5.63;;;3.13;;
33104;SDS011;19476;51.448;6.674;2023-04-15T01:43:26;6.70;;;3.45;;
33104;SDS011;19476;51.448;6.674;2023-04-15T01:45:52;8.10;;;3.55;;
33104;SDS011;19476;51.448;6.674;2023-04-15T01:48:18;7.47;;;3.75;;
33104;SDS011;19476;51.448;6.674;2023-04-15T01:50:43;6.97;;;3.30;;
33104;SDS011;19476;51.448;6.674;2023-04-15T01:53:10;7.28;;;3.63;;
33104;SDS011;19476;51.448;6.674;2023-04-15T01:55:36;6.65;;;3.50;;
33104;SDS011;19476;51.448;6.674;2023-04-15T01:58:02;5.95;;;3.47;;
33104;SDS011;19476;51.448;6.674;2023-04-15T02:00:28;9.20;;;4.22;;
33104;SDS011;19476;51.448;6.674;2023-04-15T02:02:55;5.90;;;3.85;;
33104;SDS011;19476;51.448;6.674;2023-04-15T02:05:20;7.78;;;3.75;;
33104;SDS011;19476;51.448;6.674;2023-04-15T02:07:46;6.75;;;3.85;;
33104;SDS011;19476;51.448;6.674;2023-04-15T02:10:12;8.18;;;3.80;;
33104;SDS011;19476;51.448;6.674;2023-04-15T02:12:39;7.20;;;3.83;;
33104;SDS011;19476;51.448;6.674;2023-04-15T02:15:05;6.95;;;3.90;;
33104;SDS011;19476;51.448;6.674;2023-04-15T02:17:34;6.93;;;3.88;;
33104;SDS011;19476;51.448;6.674;2023-04-15T02:22:29;6.63;;;3.35;;
33104;SDS011;19476;51.448;6.674;2023-04-15T02:24:55;6.53;;;3.72;;
33104;SDS011;19476;51.448;6.674;2023-04-15T02:27:20;5.72;;;3.28;;
33104;SDS011;19476;51.448;6.674;2023-04-15T02:29:46;6.32;;;3.55;;
33104;SDS011;19476;51.448;6.674;2023-04-15T02:32:12;5.25;;;3.28;;
33104;SDS011;19476;51.448;6.674;2023-04-15T02:34:39;5.75;;;3.55;;
33104;SDS011;19476;51.448;6.674;2023-04-15T02:37:07;8.23;;;4.05;;
33104;SDS011;19476;51.448;6.674;2023-04-15T02:39:33;6.78;;;3.75;;
33104;SDS011;19476;51.448;6.674;2023-04-15T02:41:59;7.60;;;4.10;;
33104;SDS011;19476;51.448;6.674;2023-04-15T02:44:25;6.22;;;3.75;;
33104;SDS011;19476;51.448;6.674;2023-04-15T02:46:51;4.85;;;3.20;;
33104;SDS011;19476;51.448;6.674;2023-04-15T02:49:21;7.18;;;3.60;;
33104;SDS011;19476;51.448;6.674;2023-04-15T02:51:48;7.07;;;4.10;;
33104;SDS011;19476;51.448;6.674;2023-04-15T02:54:23;6.30;;;4.10;;
33104;SDS011;19476;51.448;6.674;2023-04-15T02:56:49;7.07;;;4.03;;
33104;SDS011;19476;51.448;6.674;2023-04-15T02:59:19;8.63;;;4.28;;
33104;SDS011;19476;51.448;6.674;2023-04-15T03:01:45;5.93;;;3.42;;
33104;SDS011;19476;51.448;6.674;2023-04-15T03:04:11;6.75;;;3.60;;
33104;SDS011;19476;51.448;6.674;2023-04-15T03:06:37;7.40;;;4.05;;
33104;SDS011;19476;51.448;6.674;2023-04-15T03:09:03;6.10;;;3.63;;
33104;SDS011;19476;51.448;6.674;2023-04-15T03:11:29;5.30;;;2.85;;
33104;SDS011;19476;51.448;6.674;2023-04-15T03:13:55;6.57;;;3.47;;
33104;SDS011;19476;51.448;6.674;2023-04-15T03:16:22;5.65;;;3.38;;
33104;SDS011;19476;51.448;6.674;2023-04-15T03:18:49;6.22;;;4.00;;
33104;SDS011;19476;51.448;6.674;2023-04-15T03:21:15;5.90;;;3.35;;
33104;SDS011;19476;51.448;6.674;2023-04-15T03:23:41;6.38;;;3.58;;
33104;SDS011;19476;51.448;6.674;2023-04-15T03:26:07;5.45;;;2.97;;
33104;SDS011;19476;51.448;6.674;2023-04-15T03:28:32;6.13;;;3.60;;
33104;SDS011;19476;51.448;6.674;2023-04-15T03:30:58;6.43;;;3.85;;
33104;SDS011;19476;51.448;6.674;2023-04-15T03:33:24;5.05;;;2.78;;
33104;SDS011;19476;51.448;6.674;2023-04-15T03:35:50;7.53;;;3.50;;
33104;SDS011;19476;51.448;6.674;2023-04-15T03:38:17;7.15;;;4.20;;
33104;SDS011;19476;51.448;6.674;2023-04-15T03:40:43;5.47;;;3.33;;
33104;SDS011;19476;51.448;6.674;2023-04-15T03:43:10;6.35;;;3.50;;
33104;SDS011;19476;51.448;6.674;2023-04-15T03:45:36;5.75;;;3.50;;
33104;SDS011;19476;51.448;6.674;2023-04-15T03:48:02;6.60;;;3.45;;
33104;SDS011;19476;51.448;6.674;2023-04-15T03:50:28;4.55;;;2.83;;
33104;SDS011;19476;51.448;6.674;2023-04-15T03:52:54;5.57;;;3.10;;
33104;SDS011;19476;51.448;6.674;2023-04-15T03:55:20;4.53;;;3.17;;
33104;SDS011;19476;51.448;6.674;2023-04-15T03:57:45;5.45;;;2.78;;
33104;SDS011;19476;51.448;6.674;2023-04-15T04:00:11;5.35;;;3.30;;
33104;SDS011;19476;51.448;6.674;2023-04-15T04:02:37;5.15;;;3.30;;
33104;SDS011;19476;51.448;6.674;2023-04-15T04:05:03;6.63;;;3.33;;
33104;SDS011;19476;51.448;6.674;2023-04-15T04:07:29;5.32;;;3.60;;
33104;SDS011;19476;51.448;6.674;2023-04-15T04:09:57;6.10;;;3.10;;
33104;SDS011;19476;51.448;6.674;2023-04-15T04:12:23;6.03;;;3.08;;
33104;SDS011;19476;51.448;6.674;2023-04-15T04:14:49;6.72;;;3.30;;
33104;SDS011;19476;51.448;6.674;2023-04-15T04:17:15;5.50;;;3.42;;
33104;SDS011;19476;51.448;6.674;2023-04-15T04:19:41;4.65;;;3.17;;
33104;SDS011;19476;51.448;6.674;2023-04-15T04:22:06;6.20;;;3.55;;
33104;SDS011;19476;51.448;6.674;2023-04-15T04:24:32;6.68;;;3.65;;
33104;SDS011;19476;51.448;6.674;2023-04-15T04:26:58;6.05;;;3.35;;
33104;SDS011;19476;51.448;6.674;2023-04-15T04:29:24;7.35;;;3.42;;
33104;SDS011;19476;51.448;6.674;2023-04-15T04:31:51;6.43;;;3.33;;
33104;SDS011;19476;51.448;6.674;2023-04-15T04:34:16;5.15;;;3.53;;
33104;SDS011;19476;51.448;6.674;2023-04-15T04:36:42;6.53;;;3.58;;
33104;SDS011;19476;51.448;6.674;2023-04-15T04:39:08;6.03;;;3.55;;
33104;SDS011;19476;51.448;6.674;2023-04-15T04:41:34;6.25;;;3.85;;
33104;SDS011;19476;51.448;6.674;2023-04-15T04:44:00;5.45;;;3.25;;
33104;SDS011;19476;51.448;6.674;2023-04-15T04:46:25;5.22;;;3.10;;
33104;SDS011;19476;51.448;6.674;2023-04-15T04:48:51;6.80;;;3.70;;
33104;SDS011;19476;51.448;6.674;2023-04-15T04:51:17;5.35;;;3.42;;
33104;SDS011;19476;51.448;6.674;2023-04-15T04:53:43;7.63;;;3.83;;
33104;SDS011;19476;51.448;6.674;2023-04-15T04:56:09;5.85;;;3.40;;
33104;SDS011;19476;51.448;6.674;2023-04-15T04:58:35;6.38;;;3.65;;
33104;SDS011;19476;51.448;6.674;2023-04-15T05:01:00;5.10;;;2.95;;
33104;SDS011;19476;51.448;6.674;2023-04-15T05:03:27;4.80;;;3.03;;
33104;SDS011;19476;51.448;6.674;2023-04-15T05:05:52;5.22;;;3.22;;
33104;SDS011;19476;51.448;6.674;2023-04-15T05:08:18;5.65;;;3.15;;
33104;SDS011;19476;51.448;6.674;2023-04-15T05:10:44;6.85;;;3.60;;
33104;SDS011;19476;51.448;6.674;2023-04-15T05:13:10;7.03;;;3.30;;
33104;SDS011;19476;51.448;6.674;2023-04-15T05:15:36;5.80;;;3.03;;
33104;SDS011;19476;51.448;6.674;2023-04-15T05:18:05;5.63;;;3.00;;
33104;SDS011;19476;51.448;6.674;2023-04-15T05:20:31;5.38;;;2.85;;
33104;SDS011;19476;51.448;6.674;2023-04-15T05:22:56;5.28;;;3.50;;
33104;SDS011;19476;51.448;6.674;2023-04-15T05:25:22;6.72;;;3.67;;
33104;SDS011;19476;51.448;6.674;2023-04-15T05:27:48;5.22;;;3.20;;
33104;SDS011;19476;51.448;6.674;2023-04-15T05:30:13;5.68;;;3.50;;
33104;SDS011;19476;51.448;6.674;2023-04-15T05:32:40;6.28;;;3.70;;
33104;SDS011;19476;51.448;6.674;2023-04-15T05:35:05;7.75;;;3.35;;
33104;SDS011;19476;51.448;6.674;2023-04-15T05:37:32;6.85;;;3.70;;
33104;SDS011;19476;51.448;6.674;2023-04-15T05:39:58;6.80;;;3.85;;
33104;SDS011;19476;51.448;6.674;2023-04-15T05:42:24;5.68;;;3.45;;
33104;SDS011;19476;51.448;6.674;2023-04-15T05:44:50;5.70;;;3.40;;
33104;SDS011;19476;51.448;6.674;2023-04-15T05:47:15;6.90;;;3.70;;
33104;SDS011;19476;51.448;6.674;2023-04-15T05:49:42;7.10;;;4.10;;
33104;SDS011;19476;51.448;6.674;2023-04-15T05:52:07;6.60;;;3.70;;
33104;SDS011;19476;51.448;6.674;2023-04-15T05:54:33;5.93;;;3.33;;
33104;SDS011;19476;51.448;6.674;2023-04-15T05:56:59;6.85;;;3.72;;
33104;SDS011;19476;51.448;6.674;2023-04-15T05:59:25;5.35;;;3.58;;
33104;SDS011;19476;51.448;6.674;2023-04-15T06:01:52;6.35;;;3.78;;
33104;SDS011;19476;51.448;6.674;2023-04-15T06:04:18;6.78;;;3.97;;
33104;SDS011;19476;51.448;6.674;2023-04-15T06:06:43;6.75;;;4.13;;
33104;SDS011;19476;51.448;6.674;2023-04-15T06:09:09;6.78;;;4.18;;
33104;SDS011;19476;51.448;6.674;2023-04-15T06:11:35;7.28;;;4.05;;
33104;SDS011;19476;51.448;6.674;2023-04-15T06:14:01;7.40;;;4.00;;
33104;SDS011;19476;51.448;6.674;2023-04-15T06:16:27;7.43;;;3.88;;
33104;SDS011;19476;51.448;6.674;2023-04-15T06:18:53;7.70;;;4.70;;
33104;SDS011;19476;51.448;6.674;2023-04-15T06:21:18;6.40;;;3.95;;
33104;SDS011;19476;51.448;6.674;2023-04-15T06:23:44;6.90;;;4.60;;
33104;SDS011;19476;51.448;6.674;2023-04-15T06:26:10;7.30;;;4.28;;
33104;SDS011;19476;51.448;6.674;2023-04-15T06:28:35;9.00;;;4.97;;
33104;SDS011;19476;51.448;6.674;2023-04-15T06:31:01;8.38;;;5.22;;
33104;SDS011;19476;51.448;6.674;2023-04-15T06:33:27;7.32;;;4.75;;
33104;SDS011;19476;51.448;6.674;2023-04-15T06:35:53;7.40;;;4.60;;
33104;SDS011;19476;51.448;6.674;2023-04-15T06:38:19;7.90;;;4.25;;
33104;SDS011;19476;51.448;6.674;2023-04-15T06:40:45;7.35;;;4.47;;
33104;SDS011;19476;51.448;6.674;2023-04-15T06:43:11;6.88;;;4.22;;
33104;SDS011;19476;51.448;6.674;2023-04-15T06:45:37;8.82;;;5.03;;
33104;SDS011;19476;51.448;6.674;2023-04-15T06:48:02;7.40;;;4.43;;
33104;SDS011;19476;51.448;6.674;2023-04-15T06:50:28;7.82;;;5.05;;
33104;SDS011;19476;51.448;6.674;2023-04-15T06:52:54;7.05;;;4.38;;
33104;SDS011;19476;51.448;6.674;2023-04-15T06:55:21;7.18;;;4.10;;
33104;SDS011;19476;51.448;6.674;2023-04-15T06:57:47;7.13;;;4.50;;
33104;SDS011;19476;51.448;6.674;2023-04-15T07:00:12;6.70;;;4.40;;
33104;SDS011;19476;51.448;6.674;2023-04-15T07:02:38;7.95;;;4.72;;
33104;SDS011;19476;51.448;6.674;2023-04-15T07:05:05;6.97;;;4.55;;
33104;SDS011;19476;51.448;6.674;2023-04-15T07:07:31;7.75;;;4.90;;
33104;SDS011;19476;51.448;6.674;2023-04-15T07:09:57;9.18;;;5.68;;
33104;SDS011;19476;51.448;6.674;2023-04-15T07:12:23;8.93;;;4.75;;
33104;SDS011;19476;51.448;6.674;2023-04-15T07:14:49;7.38;;;4.30;;
33104;SDS011;19476;51.448;6.674;2023-04-15T07:17:15;7.93;;;4.15;;
33104;SDS011;19476;51.448;6.674;2023-04-15T07:19:41;7.20;;;4.32;;
33104;SDS011;19476;51.448;6.674;2023-04-15T07:22:06;6.35;;;3.65;;
33104;SDS011;19476;51.448;6.674;2023-04-15T07:24:32;6.80;;;3.75;;
33104;SDS011;19476;51.448;6.674;2023-04-15T07:26:58;5.00;;;3.05;;
33104;SDS011;19476;51.448;6.674;2023-04-15T07:29:24;4.70;;;2.70;;
33104;SDS011;19476;51.448;6.674;2023-04-15T07:31:51;6.70;;;2.80;;
33104;SDS011;19476;51.448;6.674;2023-04-15T07:34:17;4.60;;;2.33;;
33104;SDS011;19476;51.448;6.674;2023-04-15T07:36:43;5.15;;;2.47;;
33104;SDS011;19476;51.448;6.674;2023-04-15T07:39:10;5.13;;;2.28;;
33104;SDS011;19476;51.448;6.674;2023-04-15T07:41:36;3.65;;;1.85;;
33104;SDS011;19476;51.448;6.674;2023-04-15T07:44:02;4.10;;;2.20;;
33104;SDS011;19476;51.448;6.674;2023-04-15T07:46:28;5.57;;;2.35;;
33104;SDS011;19476;51.448;6.674;2023-04-15T07:48:54;4.80;;;2.25;;
33104;SDS011;19476;51.448;6.674;2023-04-15T07:51:20;4.28;;;2.20;;
33104;SDS011;19476;51.448;6.674;2023-04-15T07:53:46;4.35;;;2.22;;
33104;SDS011;19476;51.448;6.674;2023-04-15T07:56:13;4.47;;;2.10;;
33104;SDS011;19476;51.448;6.674;2023-04-15T07:58:39;4.18;;;1.73;;
33104;SDS011;19476;51.448;6.674;2023-04-15T08:01:05;2.72;;;1.45;;
33104;SDS011;19476;51.448;6.674;2023-04-15T08:03:31;2.63;;;1.40;;
33104;SDS011;19476;51.448;6.674;2023-04-15T08:05:57;2.75;;;1.17;;
33104;SDS011;19476;51.448;6.674;2023-04-15T08:08:23;4.40;;;2.20;;
33104;SDS011;19476;51.448;6.674;2023-04-15T08:10:50;3.60;;;2.00;;
33104;SDS011;19476;51.448;6.674;2023-04-15T08:13:16;2.97;;;1.55;;
33104;SDS011;19476;51.448;6.674;2023-04-15T08:15:42;3.03;;;1.88;;
33104;SDS011;19476;51.448;6.674;2023-04-15T08:18:08;4.25;;;1.70;;
33104;SDS011;19476;51.448;6.674;2023-04-15T08:20:35;4.18;;;2.05;;
33104;SDS011;19476;51.448;6.674;2023-04-15T08:23:02;2.75;;;1.88;;
33104;SDS011;19476;51.448;6.674;2023-04-15T08:25:30;3.50;;;1.80;;
33104;SDS011;19476;51.448;6.674;2023-04-15T08:27:55;3.30;;;1.80;;
33104;SDS011;19476;51.448;6.674;2023-04-15T08:30:21;3.65;;;2.00;;
33104;SDS011;19476;51.448;6.674;2023-04-15T08:32:48;3.05;;;1.90;;
33104;SDS011;19476;51.448;6.674;2023-04-15T08:35:15;3.58;;;1.75;;
33104;SDS011;19476;51.448;6.674;2023-04-15T08:37:41;3.42;;;1.63;;
33104;SDS011;19476;51.448;6.674;2023-04-15T08:40:10;2.93;;;1.47;;
33104;SDS011;19476;51.448;6.674;2023-04-15T08:42:40;3.78;;;1.65;;
33104;SDS011;19476;51.448;6.674;2023-04-15T08:48:05;2.20;;;1.40;;
33104;SDS011;19476;51.448;6.674;2023-04-15T08:50:34;2.50;;;1.40;;
33104;SDS011;19476;51.448;6.674;2023-04-15T08:52:59;4.25;;;1.58;;
33104;SDS011;19476;51.448;6.674;2023-04-15T08:55:27;2.25;;;1.42;;
33104;SDS011;19476;51.448;6.674;2023-04-15T08:57:57;2.35;;;1.38;;
33104;SDS011;19476;51.448;6.674;2023-04-15T09:00:24;2.10;;;1.42;;
33104;SDS011;19476;51.448;6.674;2023-04-15T09:02:51;2.58;;;1.48;;
33104;SDS011;19476;51.448;6.674;2023-04-15T09:05:19;3.83;;;1.60;;
33104;SDS011;19476;51.448;6.674;2023-04-15T09:07:49;2.45;;;1.27;;
33104;SDS011;19476;51.448;6.674;2023-04-15T09:10:15;3.38;;;1.52;;
33104;SDS011;19476;51.448;6.674;2023-04-15T09:12:42;2.70;;;1.60;;
33104;SDS011;19476;51.448;6.674;2023-04-15T09:15:09;2.75;;;1.30;;
33104;SDS011;19476;51.448;6.674;2023-04-15T09:17:41;2.22;;;1.38;;
33104;SDS011;19476;51.448;6.674;2023-04-15T09:20:14;3.38;;;1.77;;
33104;SDS011;19476;51.448;6.674;2023-04-15T09:22:44;3.70;;;2.20;;
33104;SDS011;19476;51.448;6.674;2023-04-15T09:30:32;4.60;;;2.10;;
33104;SDS011;19476;51.448;6.674;2023-04-15T09:33:00;3.17;;;1.77;;
33104;SDS011;19476;51.448;6.674;2023-04-15T09:35:27;2.83;;;1.65;;
33104;SDS011;19476;51.448;6.674;2023-04-15T09:38:03;4.05;;;2.03;;
33104;SDS011;19476;51.448;6.674;2023-04-15T09:40:32;4.07;;;2.10;;
33104;SDS011;19476;51.448;6.674;2023-04-15T09:42:59;3.25;;;1.92;;
33104;SDS011;19476;51.448;6.674;2023-04-15T09:47:59;2.97;;;1.80;;
33104;SDS011;19476;51.448;6.674;2023-04-15T09:50:45;3.08;;;1.65;;
33104;SDS011;19476;51.448;6.674;2023-04-15T09:53:21;3.20;;;1.80;;
33104;SDS011;19476;51.448;6.674;2023-04-15T09:55:50;3.58;;;1.60;;
33104;SDS011;19476;51.448;6.674;2023-04-15T09:58:21;3.33;;;1.80;;
33104;SDS011;19476;51.448;6.674;2023-04-15T10:00:48;3.03;;;1.77;;
33104;SDS011;19476;51.448;6.674;2023-04-15T10:03:17;2.83;;;1.75;;
33104;SDS011;19476;51.448;6.674;2023-04-15T10:05:49;3.92;;;2.40;;
33104;SDS011;19476;51.448;6.674;2023-04-15T10:08:22;3.22;;;1.70;;
33104;SDS011;19476;51.448;6.674;2023-04-15T10:10:50;5.03;;;1.83;;
33104;SDS011;19476;51.448;6.674;2023-04-15T10:13:17;3.72;;;1.83;;
33104;SDS011;19476;51.448;6.674;2023-04-15T10:18:50;3.50;;;1.80;;
33104;SDS011;19476;51.448;6.674;2023-04-15T10:21:31;4.32;;;2.20;;
33104;SDS011;19476;51.448;6.674;2023-04-15T10:26:25;2.72;;;1.67;;
33104;SDS011;19476;51.448;6.674;2023-04-15T10:28:52;3.13;;;1.88;;
33104;SDS011;19476;51.448;6.674;2023-04-15T10:31:23;4.35;;;2.15;;
33104;SDS011;19476;51.448;6.674;2023-04-15T10:33:52;3.65;;;2.10;;
33104;SDS011;19476;51.448;6.674;2023-04-15T10:36:19;3.38;;;1.90;;
33104;SDS011;19476;51.448;6.674;2023-04-15T10:38:49;2.83;;;1.80;;
33104;SDS011;19476;51.448;6.674;2023-04-15T10:41:26;3.03;;;1.90;;
33104;SDS011;19476;51.448;6.674;2023-04-15T10:44:04;4.60;;;1.83;;
33104;SDS011;19476;51.448;6.674;2023-04-15T10:46:38;2.90;;;1.77;;
33104;SDS011;19476;51.448;6.674;2023-04-15T10:49:13;3.72;;;1.80;;
33104;SDS011;19476;51.448;6.674;2023-04-15T10:51:45;3.83;;;1.83;;
33104;SDS011;19476;51.448;6.674;2023-04-15T10:57:36;3.65;;;2.05;;
33104;SDS011;19476;51.448;6.674;2023-04-15T11:05:14;3.47;;;1.73;;
33104;SDS011;19476;51.448;6.674;2023-04-15T11:12:52;3.33;;;1.73;;
33104;SDS011;19476;51.448;6.674;2023-04-15T11:17:54;3.22;;;1.60;;
33104;SDS011;19476;51.448;6.674;2023-04-15T11:20:21;4.05;;;1.77;;
33104;SDS011;19476;51.448;6.674;2023-04-15T11:22:49;2.55;;;1.50;;
33104;SDS011;19476;51.448;6.674;2023-04-15T11:25:25;3.58;;;1.55;;
33104;SDS011;19476;51.448;6.674;2023-04-15T11:27:53;3.50;;;1.70;;
33104;SDS011;19476;51.448;6.674;2023-04-15T11:30:20;3.35;;;1.73;;
33104;SDS011;19476;51.448;6.674;2023-04-15T11:32:53;3.22;;;1.45;;
33104;SDS011;19476;51.448;6.674;2023-04-15T11:35:22;2.05;;;1.33;;
33104;SDS011;19476;51.448;6.674;2023-04-15T11:37:48;2.25;;;1.40;;
33104;SDS011;19476;51.448;6.674;2023-04-15T11:40:15;2.53;;;1.58;;
33104;SDS011;19476;51.448;6.674;2023-04-15T11:42:45;2.40;;;1.30;;
33104;SDS011;19476;51.448;6.674;2023-04-15T11:45:12;1.90;;;1.55;;
33104;SDS011;19476;51.448;6.674;2023-04-15T11:47:40;2.13;;;1.20;;
33104;SDS011;19476;51.448;6.674;2023-04-15T11:52:53;2.08;;;1.27;;
33104;SDS011;19476;51.448;6.674;2023-04-15T11:55:19;2.22;;;1.35;;
33104;SDS011;19476;51.448;6.674;2023-04-15T11:57:45;2.35;;;1.30;;
33104;SDS011;19476;51.448;6.674;2023-04-15T12:00:11;2.17;;;1.15;;
33104;SDS011;19476;51.448;6.674;2023-04-15T12:02:37;2.85;;;1.73;;
33104;SDS011;19476;51.448;6.674;2023-04-15T12:05:04;2.78;;;1.40;;
33104;SDS011;19476;51.448;6.674;2023-04-15T12:07:30;3.10;;;1.60;;
33104;SDS011;19476;51.448;6.674;2023-04-15T12:09:57;2.53;;;1.40;;
33104;SDS011;19476;51.448;6.674;2023-04-15T12:12:27;2.83;;;1.45;;
33104;SDS011;19476;51.448;6.674;2023-04-15T12:14:55;2.63;;;1.58;;
33104;SDS011;19476;51.448;6.674;2023-04-15T12:17:21;3.33;;;1.67;;
33104;SDS011;19476;51.448;6.674;2023-04-15T12:19:54;2.70;;;1.50;;
33104;SDS011;19476;51.448;6.674;2023-04-15T12:22:20;2.90;;;1.50;;
33104;SDS011;19476;51.448;6.674;2023-04-15T12:24:47;2.05;;;1.05;;
33104;SDS011;19476;51.448;6.674;2023-04-15T12:27:24;2.17;;;1.15;;
33104;SDS011;19476;51.448;6.674;2023-04-15T12:29:56;2.90;;;1.27;;
33104;SDS011;19476;51.448;6.674;2023-04-15T12:32:29;3.10;;;1.63;;
33104;SDS011;19476;51.448;6.674;2023-04-15T12:37:25;2.28;;;1.30;;
33104;SDS011;19476;51.448;6.674;2023-04-15T12:39:51;2.20;;;1.15;;
33104;SDS011;19476;51.448;6.674;2023-04-15T12:42:18;1.73;;;1.10;;
33104;SDS011;19476;51.448;6.674;2023-04-15T12:44:44;2.17;;;1.30;;
33104;SDS011;19476;51.448;6.674;2023-04-15T12:47:11;2.70;;;1.42;;
33104;SDS011;19476;51.448;6.674;2023-04-15T12:49:37;3.05;;;1.27;;
33104;SDS011;19476;51.448;6.674;2023-04-15T12:52:04;3.17;;;1.73;;
33104;SDS011;19476;51.448;6.674;2023-04-15T12:54:31;3.42;;;1.65;;
33104;SDS011;19476;51.448;6.674;2023-04-15T12:56:57;3.13;;;1.63;;
33104;SDS011;19476;51.448;6.674;2023-04-15T12:59:24;3.00;;;1.50;;
33104;SDS011;19476;51.448;6.674;2023-04-15T13:01:50;3.70;;;1.38;;
33104;SDS011;19476;51.448;6.674;2023-04-15T13:04:17;3.67;;;1.58;;
33104;SDS011;19476;51.448;6.674;2023-04-15T13:06:44;2.35;;;1.38;;
33104;SDS011;19476;51.448;6.674;2023-04-15T13:09:10;2.50;;;1.52;;
33104;SDS011;19476;51.448;6.674;2023-04-15T13:11:36;2.05;;;1.20;;
33104;SDS011;19476;51.448;6.674;2023-04-15T13:14:05;2.47;;;1.30;;
33104;SDS011;19476;51.448;6.674;2023-04-15T13:16:33;3.10;;;1.50;;
33104;SDS011;19476;51.448;6.674;2023-04-15T13:18:59;2.53;;;1.33;;
33104;SDS011;19476;51.448;6.674;2023-04-15T13:21:26;2.85;;;1.33;;
33104;SDS011;19476;51.448;6.674;2023-04-15T13:23:52;2.30;;;1.00;;
33104;SDS011;19476;51.448;6.674;2023-04-15T13:26:19;1.85;;;1.00;;
33104;SDS011;19476;51.448;6.674;2023-04-15T13:28:45;3.70;;;1.00;;
33104;SDS011;19476;51.448;6.674;2023-04-15T13:31:11;2.28;;;1.02;;
33104;SDS011;19476;51.448;6.674;2023-04-15T13:33:37;3.65;;;1.20;;
33104;SDS011;19476;51.448;6.674;2023-04-15T13:36:03;1.85;;;1.00;;
33104;SDS011;19476;51.448;6.674;2023-04-15T13:38:29;1.75;;;1.00;;
33104;SDS011;19476;51.448;6.674;2023-04-15T13:40:55;1.80;;;1.00;;
33104;SDS011;19476;51.448;6.674;2023-04-15T13:43:20;2.70;;;1.17;;
33104;SDS011;19476;51.448;6.674;2023-04-15T13:45:47;1.33;;;0.82;;
33104;SDS011;19476;51.448;6.674;2023-04-15T13:48:13;2.92;;;0.80;;
33104;SDS011;19476;51.448;6.674;2023-04-15T13:50:38;2.38;;;1.08;;
33104;SDS011;19476;51.448;6.674;2023-04-15T13:53:09;6.45;;;1.40;;
33104;SDS011;19476;51.448;6.674;2023-04-15T13:55:35;2.17;;;1.13;;
33104;SDS011;19476;51.448;6.674;2023-04-15T13:58:05;3.15;;;1.67;;
33104;SDS011;19476;51.448;6.674;2023-04-15T14:00:32;2.47;;;1.50;;
33104;SDS011;19476;51.448;6.674;2023-04-15T14:02:57;2.90;;;1.75;;
33104;SDS011;19476;51.448;6.674;2023-04-15T14:05:24;4.68;;;2.45;;
33104;SDS011;19476;51.448;6.674;2023-04-15T14:07:50;4.82;;;2.03;;
33104;SDS011;19476;51.448;6.674;2023-04-15T14:10:16;3.88;;;1.60;;
33104;SDS011;19476;51.448;6.674;2023-04-15T14:12:42;2.00;;;1.13;;
33104;SDS011;19476;51.448;6.674;2023-04-15T14:15:08;1.77;;;1.15;;
33104;SDS011;19476;51.448;6.674;2023-04-15T14:17:34;1.85;;;1.00;;
33104;SDS011;19476;51.448;6.674;2023-04-15T14:20:00;5.00;;;2.70;;
33104;SDS011;19476;51.448;6.674;2023-04-15T14:22:26;3.42;;;1.60;;
33104;SDS011;19476;51.448;6.674;2023-04-15T14:24:52;2.00;;;1.08;;
33104;SDS011;19476;51.448;6.674;2023-04-15T14:27:19;1.13;;;0.90;;
33104;SDS011;19476;51.448;6.674;2023-04-15T14:29:45;2.38;;;1.10;;
33104;SDS011;19476;51.448;6.674;2023-04-15T14:32:11;2.10;;;0.93;;
33104;SDS011;19476;51.448;6.674;2023-04-15T14:34:37;2.25;;;1.00;;
33104;SDS011;19476;51.448;6.674;2023-04-15T14:37:03;1.65;;;0.95;;
33104;SDS011;19476;51.448;6.674;2023-04-15T14:39:29;2.38;;;1.00;;
33104;SDS011;19476;51.448;6.674;2023-04-15T14:41:55;2.03;;;1.10;;
33104;SDS011;19476;51.448;6.674;2023-04-15T14:44:21;2.00;;;0.80;;
33104;SDS011;19476;51.448;6.674;2023-04-15T14:46:47;2.15;;;1.20;;
33104;SDS011;19476;51.448;6.674;2023-04-15T14:49:13;2.95;;;1.30;;
33104;SDS011;19476;51.448;6.674;2023-04-15T14:51:39;4.10;;;1.83;;
33104;SDS011;19476;51.448;6.674;2023-04-15T14:54:05;3.10;;;1.55;;
33104;SDS011;19476;51.448;6.674;2023-04-15T14:56:31;1.27;;;0.85;;
33104;SDS011;19476;51.448;6.674;2023-04-15T14:58:57;2.22;;;1.08;;
33104;SDS011;19476;51.448;6.674;2023-04-15T15:01:23;1.77;;;0.85;;
33104;SDS011;19476;51.448;6.674;2023-04-15T15:03:49;2.17;;;0.90;;
33104;SDS011;19476;51.448;6.674;2023-04-15T15:06:15;2.88;;;1.60;;
33104;SDS011;19476;51.448;6.674;2023-04-15T15:08:40;2.38;;;1.08;;
33104;SDS011;19476;51.448;6.674;2023-04-15T15:11:06;4.53;;;2.30;;
33104;SDS011;19476;51.448;6.674;2023-04-15T15:13:33;3.25;;;1.60;;
33104;SDS011;19476;51.448;6.674;2023-04-15T15:15:59;3.17;;;1.50;;
33104;SDS011;19476;51.448;6.674;2023-04-15T15:18:25;2.65;;;1.50;;
33104;SDS011;19476;51.448;6.674;2023-04-15T15:20:51;1.70;;;1.00;;
33104;SDS011;19476;51.448;6.674;2023-04-15T15:23:17;2.38;;;1.00;;
33104;SDS011;19476;51.448;6.674;2023-04-15T15:25:43;2.15;;;0.95;;